Ellsworth Air Force Base Rapid City US
ICAO: KRCA
IATA: RCA
Category: Medium
Scheduled Services: No

Elevation: 3276 ft
TransAlt. 18000 ft.

Airport Communications:
APP/DEP:119.5
ATIS:120.625
GND:121.8
PMSV METRO:37.577
COMD POST:32.1
PTD:37.22
TWR:126.05

KRCA Zoom In..

If you have problems with the map follow the link
https://www.worldairports.se/pages/airport.php?
ICAO=KRCA

Runways:

(A) RW 13 length 13497 ft width 300 ft
ILS 111.50 / hdg 127

(B) RW 31 length 13497 ft width 300 ft
ILS 110.30 / hdg 307

Location; KRCA
Day. 28 / Time. 14.56 Zulu
* Altimeter: 30.02
* Temperature: -03° c. -26.6°f.
* Wind from: 290° Speed 05 kn.
Dewpoint: -04° c.
Visibility: 10 Statute Miles.
Clouds: Clear (automated report).

KRCA 281456Z AUTO 29005KT 10SM CLR M03/M04 A3002 RMK AO2 SLP205 T10281044 52006 $


Wind From 290°
Speed 05 kn.

 
 
jpsmedia worldairports.se 2020   terms of use